Belleville, Wisconsin
Current Conditions -  °F | °C
As of 2:15 AM on Monday 24 Nov 2014 (Local Time) from KEFT Reporting Station
Drizzle Drizzle  
Wind Chill: 39°   Ceiling: 300
Heat Index: 45°   Visibility: 0.5mi
Dew Point: 45°   Wind: 12mph
Humidity: 100%   Direction: 270°W
Pressure: 29.08"   Gusts: NA
Location:  42.86°N, 89.54°W
Report Text: KEFT 240815Z AUTO 27010KT 1/2SM DZ OVC003 07/07 A2908 RMK AO2
Loading
Personal Weather Stations






























Interactive Weather Map New forecast layout! Learn more

10-Day Weather Forecast

Advertisements
Track Severe Weather on mobile